Time;durP1;ratioP1;P1;durP2;ratioP2;P2;SDS_P1;SDS_P2;PMS_P1;PMS_P2;Temp;Humidity;BMP_temperature;BMP_pressure;BME280_temperature;BME280_humidity;BME280_pressure;Samples;Min_cycle;Max_cycle;Signal;HPM_P1;HPM_P2
2021/08/13 00:00:14;;;;;;;3.97;2.97;;;26.90;54.40;;;;;;4214201;28;20051;-54
2021/08/13 00:02:16;;;;;;;6.75;3.25;;;26.80;54.40;;;;;;4215636;28;20076;-54
2021/08/13 00:04:19;;;;;;;4.95;3.10;;;26.90;54.30;;;;;;4212368;28;20040;-54
2021/08/13 00:06:21;;;;;;;4.68;2.45;;;26.90;54.30;;;;;;4215252;28;20048;-54
2021/08/13 00:08:23;;;;;;;6.68;4.25;;;26.90;54.40;;;;;;4215206;28;20040;-54
2021/08/13 00:10:25;;;;;;;4.15;3.42;;;26.80;54.20;;;;;;4215313;28;20051;-55
2021/08/13 00:12:27;;;;;;;5.20;2.63;;;26.90;54.30;;;;;;4210942;28;20040;-54
2021/08/13 00:14:29;;;;;;;5.80;3.25;;;26.90;54.30;;;;;;4214916;28;20042;-54
2021/08/13 00:16:32;;;;;;;3.17;2.88;;;26.90;54.40;;;;;;4216834;28;20049;-54
2021/08/13 00:18:34;;;;;;;4.15;3.47;;;26.90;54.40;;;;;;4215652;28;20087;-55
2021/08/13 00:20:36;;;;;;;4.70;4.22;;;26.90;54.20;;;;;;4214370;28;20044;-54
2021/08/13 00:22:38;;;;;;;5.13;2.85;;;26.80;54.20;;;;;;4215022;28;20104;-55
2021/08/13 00:24:40;;;;;;;4.72;3.80;;;26.90;54.40;;;;;;4214919;28;20216;-55
2021/08/13 00:26:42;;;;;;;3.38;2.83;;;26.80;54.10;;;;;;4215213;28;20049;-53
2021/08/13 00:28:44;;;;;;;4.35;3.10;;;26.80;54.40;;;;;;4215100;28;20063;-55
2021/08/13 00:30:46;;;;;;;5.28;3.20;;;26.80;54.40;;;;;;4215412;28;20074;-55
2021/08/13 00:32:48;;;;;;;3.88;3.33;;;26.80;54.40;;;;;;4213128;28;20045;-52
2021/08/13 00:34:51;;;;;;;7.03;3.95;;;26.80;54.50;;;;;;4215096;28;20044;-54
2021/08/13 00:36:53;;;;;;;5.75;4.22;;;26.70;54.30;;;;;;4215132;28;20044;-55
2021/08/13 00:38:55;;;;;;;4.25;3.08;;;26.80;54.30;;;;;;4201633;28;20076;-53
2021/08/13 00:40:57;;;;;;;4.30;3.38;;;26.80;54.60;;;;;;4215881;28;20045;-54
2021/08/13 00:42:59;;;;;;;4.57;3.78;;;26.80;54.40;;;;;;4215067;28;20079;-54
2021/08/13 00:45:01;;;;;;;4.60;3.88;;;26.80;54.40;;;;;;4215240;28;20044;-55
2021/08/13 00:47:03;;;;;;;5.22;3.85;;;26.80;54.60;;;;;;4197605;28;20103;-55
2021/08/13 00:49:05;;;;;;;5.53;3.95;;;26.80;54.60;;;;;;4213819;28;20067;-54
2021/08/13 00:51:07;;;;;;;6.15;3.97;;;26.80;54.60;;;;;;4221181;28;20048;-54
2021/08/13 00:53:10;;;;;;;5.90;4.25;;;26.80;54.30;;;;;;4215296;28;20046;-54
2021/08/13 00:55:12;;;;;;;4.40;3.15;;;26.80;54.80;;;;;;4212768;28;20045;-54
2021/08/13 00:57:14;;;;;;;5.57;3.78;;;26.80;54.60;;;;;;4213822;28;20040;-52
2021/08/13 00:59:17;;;;;;;5.40;4.50;;;26.80;54.60;;;;;;4214866;28;20044;-54
2021/08/13 01:01:20;;;;;;;5.25;4.45;;;26.80;54.70;;;;;;4214931;28;20048;-54
2021/08/13 01:03:22;;;;;;;8.25;3.80;;;26.80;54.50;;;;;;4214891;28;20045;-54
2021/08/13 01:05:24;;;;;;;5.45;4.72;;;26.80;54.70;;;;;;4214684;28;20045;-54
2021/08/13 01:07:26;;;;;;;4.32;3.90;;;26.80;54.80;;;;;;4215178;28;20056;-54
2021/08/13 01:09:29;;;;;;;6.95;4.88;;;26.70;54.80;;;;;;4205341;28;20049;-54
2021/08/13 01:12:19;;;;;;;6.05;4.53;;;26.70;54.70;;;;;;4203476;28;20050;-54
2021/08/13 01:14:44;;;;;;;6.07;4.35;;;26.80;54.80;;;;;;4184287;28;20096;-55
2021/08/13 01:16:49;;;;;;;4.50;3.90;;;26.70;54.80;;;;;;4214124;28;20051;-53
2021/08/13 01:19:25;;;;;;;4.97;4.18;;;26.70;54.80;;;;;;4214744;28;20077;-54
2021/08/13 01:22:01;;;;;;;6.07;4.22;;;26.70;55.00;;;;;;4134462;28;20054;-55
2021/08/13 01:24:08;;;;;;;5.57;3.78;;;26.80;54.90;;;;;;4216198;28;20056;-53
2021/08/13 01:26:11;;;;;;;5.60;4.15;;;26.70;55.10;;;;;;4215291;28;20045;-55
2021/08/13 01:28:22;;;;;;;4.85;3.78;;;26.80;54.90;;;;;;4217683;28;20056;-55
2021/08/13 01:30:26;;;;;;;5.60;4.10;;;26.80;54.90;;;;;;4216944;28;20057;-55
2021/08/13 01:32:37;;;;;;;6.53;3.95;;;26.80;55.00;;;;;;4215692;28;20045;-54
2021/08/13 01:34:44;;;;;;;3.80;3.40;;;26.80;54.90;;;;;;4216549;28;20055;-54
2021/08/13 01:36:48;;;;;;;8.13;4.55;;;26.80;55.10;;;;;;4214545;28;20049;-55
2021/08/13 01:38:52;;;;;;;5.43;4.38;;;26.80;54.60;;;;;;4217429;28;20063;-55
2021/08/13 01:40:59;;;;;;;5.68;4.30;;;26.80;54.90;;;;;;4217112;28;20048;-54
2021/08/13 01:43:02;;;;;;;6.82;4.45;;;26.70;54.70;;;;;;4208097;28;20053;-53
2021/08/13 01:45:06;;;;;;;4.22;3.83;;;26.70;54.80;;;;;;4214765;28;20044;-54
2021/08/13 01:47:08;;;;;;;6.15;4.82;;;26.70;54.90;;;;;;4217167;28;20048;-54
2021/08/13 01:49:13;;;;;;;7.85;4.95;;;26.70;54.80;;;;;;4205072;28;20049;-54
2021/08/13 01:51:17;;;;;;;5.00;4.50;;;26.70;54.70;;;;;;4206705;28;20104;-55
2021/08/13 01:53:21;;;;;;;4.40;4.00;;;26.70;54.80;;;;;;4216979;28;20047;-55
2021/08/13 01:55:23;;;;;;;6.32;4.57;;;26.70;54.90;;;;;;4217065;28;20071;-55
2021/08/13 01:57:26;;;;;;;6.03;3.90;;;26.70;54.70;;;;;;4216760;28;20143;-54
2021/08/13 01:59:32;;;;;;;4.82;3.85;;;26.70;55.00;;;;;;4216503;28;20071;-55
2021/08/13 02:01:35;;;;;;;7.20;4.13;;;26.70;54.90;;;;;;4220455;28;20123;-55
2021/08/13 02:03:39;;;;;;;6.32;4.50;;;26.70;54.90;;;;;;4214486;28;20063;-55
2021/08/13 02:05:42;;;;;;;7.10;3.83;;;26.70;54.80;;;;;;4216502;28;20056;-55
2021/08/13 02:07:46;;;;;;;5.03;4.17;;;26.70;54.70;;;;;;4217013;28;20054;-55
2021/08/13 02:09:48;;;;;;;6.43;4.28;;;26.70;54.70;;;;;;4217008;28;20301;-55
2021/08/13 02:11:53;;;;;;;5.93;3.95;;;26.70;54.90;;;;;;4216592;28;20115;-55
2021/08/13 02:13:56;;;;;;;5.55;4.03;;;26.70;54.60;;;;;;4216738;28;20068;-55
2021/08/13 02:16:08;;;;;;;5.57;4.18;;;26.70;54.80;;;;;;4216668;28;20048;-55
2021/08/13 02:18:16;;;;;;;5.22;4.35;;;26.70;54.60;;;;;;4216599;28;20087;-55
2021/08/13 02:20:20;;;;;;;6.38;4.70;;;26.70;54.60;;;;;;4215961;28;20040;-54
2021/08/13 02:22:22;;;;;;;6.53;5.65;;;26.70;54.40;;;;;;4214941;28;20055;-54
2021/08/13 02:24:24;;;;;;;6.53;5.00;;;26.70;54.30;;;;;;4216369;28;20044;-55
2021/08/13 02:26:26;;;;;;;7.30;5.05;;;26.70;54.50;;;;;;4214767;28;20056;-55
2021/08/13 02:28:28;;;;;;;7.50;6.00;;;26.70;54.30;;;;;;4213422;28;20052;-55
2021/08/13 02:30:30;;;;;;;7.40;5.88;;;26.70;54.40;;;;;;4215559;28;20049;-53
2021/08/13 02:32:32;;;;;;;7.25;5.93;;;26.70;54.30;;;;;;4199752;28;20463;-55
2021/08/13 02:34:35;;;;;;;6.90;5.78;;;26.70;54.30;;;;;;4196978;28;20049;-55
2021/08/13 02:36:46;;;;;;;8.50;5.95;;;26.60;54.60;;;;;;4216512;28;20051;-55
2021/08/13 02:39:02;;;;;;;6.88;5.47;;;26.70;54.20;;;;;;4211799;28;20120;-56
2021/08/13 02:41:07;;;;;;;7.82;6.30;;;26.70;54.30;;;;;;4211989;28;20059;-56
2021/08/13 02:43:25;;;;;;;5.80;5.07;;;26.60;54.20;;;;;;4201368;28;20053;-56
2021/08/13 02:45:32;;;;;;;7.28;5.82;;;26.60;54.30;;;;;;4217867;28;20062;-56
2021/08/13 02:47:34;;;;;;;7.43;5.03;;;26.60;54.20;;;;;;4214316;28;20075;-55
2021/08/13 02:49:45;;;;;;;6.05;4.88;;;26.60;54.20;;;;;;4216163;28;20048;-55
2021/08/13 02:51:52;;;;;;;5.60;4.63;;;26.70;54.30;;;;;;4212246;28;20045;-55
2021/08/13 02:53:55;;;;;;;9.45;5.45;;;26.60;54.30;;;;;;4215598;28;20044;-55
2021/08/13 02:56:10;;;;;;;9.77;5.70;;;26.60;54.30;;;;;;4214513;28;20052;-55
2021/08/13 02:58:16;;;;;;;8.75;5.45;;;26.60;54.20;;;;;;4199440;28;20045;-56
2021/08/13 03:00:19;;;;;;;5.05;4.47;;;26.70;54.30;;;;;;4215653;28;20051;-55
2021/08/13 03:02:23;;;;;;;6.88;5.63;;;26.60;54.30;;;;;;4215215;28;20079;-55
2021/08/13 03:04:30;;;;;;;7.88;6.30;;;26.60;54.40;;;;;;4213449;28;20044;-55
2021/08/13 03:06:36;;;;;;;6.97;5.55;;;26.60;54.30;;;;;;4199385;28;20053;-56
2021/08/13 03:08:40;;;;;;;6.35;4.95;;;26.60;54.30;;;;;;4215073;28;20044;-55
2021/08/13 03:10:42;;;;;;;6.13;4.53;;;26.60;54.30;;;;;;4213740;28;20100;-56
2021/08/13 03:12:46;;;;;;;8.55;5.47;;;26.60;54.30;;;;;;4215302;28;20049;-55
2021/08/13 03:14:50;;;;;;;6.35;5.30;;;26.60;54.30;;;;;;4215563;28;20044;-55
2021/08/13 03:16:54;;;;;;;6.75;5.03;;;26.60;54.30;;;;;;4213944;28;20049;-55
2021/08/13 03:18:56;;;;;;;9.45;5.32;;;26.60;54.10;;;;;;4215688;28;20043;-56
2021/08/13 03:21:00;;;;;;;9.80;5.72;;;26.60;54.10;;;;;;4215032;28;20048;-55
2021/08/13 03:23:02;;;;;;;5.10;4.38;;;26.50;54.00;;;;;;4201985;28;20506;-55
2021/08/13 03:25:05;;;;;;;8.55;4.68;;;26.60;54.00;;;;;;4207944;28;20041;-53
2021/08/13 03:27:08;;;;;;;9.00;5.97;;;26.60;54.00;;;;;;4215437;28;20056;-54
2021/08/13 03:29:10;;;;;;;6.55;4.90;;;26.60;54.00;;;;;;4215419;28;20108;-55
2021/08/13 03:31:32;;;;;;;8.27;5.85;;;26.50;54.10;;;;;;4213485;28;20052;-55
2021/08/13 03:33:35;;;;;;;7.53;5.30;;;26.60;54.20;;;;;;4210354;28;20078;-53
2021/08/13 03:35:39;;;;;;;8.88;5.20;;;26.60;54.00;;;;;;4225083;28;20075;-54
2021/08/13 03:37:41;;;;;;;11.10;5.57;;;26.70;53.90;;;;;;4215266;28;20178;-55
2021/08/13 03:39:44;;;;;;;7.50;4.60;;;26.70;53.70;;;;;;4213387;28;20116;-55
2021/08/13 03:41:46;;;;;;;7.53;5.22;;;26.70;53.70;;;;;;4213857;28;20070;-55
2021/08/13 03:43:48;;;;;;;7.57;5.18;;;26.70;53.50;;;;;;4213715;28;20045;-55
2021/08/13 03:45:51;;;;;;;8.02;4.97;;;26.70;53.60;;;;;;4214636;28;20049;-55
2021/08/13 03:47:53;;;;;;;9.07;5.40;;;26.70;53.70;;;;;;4213707;28;20060;-56
2021/08/13 03:49:55;;;;;;;6.65;5.15;;;26.70;53.70;;;;;;4215042;28;20062;-55
2021/08/13 03:51:57;;;;;;;6.50;4.90;;;26.60;53.60;;;;;;4212544;28;20048;-55
2021/08/13 03:53:59;;;;;;;6.85;4.22;;;26.70;53.60;;;;;;4214380;28;20100;-54
2021/08/13 03:56:01;;;;;;;5.60;4.22;;;26.70;53.80;;;;;;4215439;28;20115;-54
2021/08/13 03:58:03;;;;;;;6.38;4.97;;;26.70;53.50;;;;;;4213252;28;20100;-53
2021/08/13 04:00:07;;;;;;;6.03;3.97;;;26.70;53.50;;;;;;4213626;28;20575;-55
2021/08/13 04:02:10;;;;;;;6.72;4.10;;;26.60;53.80;;;;;;4215286;28;20052;-55
2021/08/13 04:04:12;;;;;;;7.43;4.28;;;26.60;53.80;;;;;;4215103;28;20126;-52
2021/08/13 04:06:15;;;;;;;5.45;4.18;;;26.70;53.80;;;;;;4215426;28;20067;-55
2021/08/13 04:08:17;;;;;;;7.20;4.53;;;26.70;53.60;;;;;;4215972;28;20104;-54
2021/08/13 04:10:19;;;;;;;9.45;5.80;;;26.60;53.50;;;;;;4206854;28;20043;-55
2021/08/13 04:12:21;;;;;;;11.30;5.50;;;26.60;53.20;;;;;;4214781;28;20098;-54
2021/08/13 04:14:23;;;;;;;7.22;4.88;;;26.60;53.40;;;;;;4213884;28;20045;-54
2021/08/13 04:16:25;;;;;;;5.22;4.22;;;26.60;53.20;;;;;;4212225;28;20048;-55
2021/08/13 04:18:27;;;;;;;6.50;4.80;;;26.60;53.00;;;;;;4219415;28;20041;-56
2021/08/13 04:20:29;;;;;;;15.00;5.60;;;26.60;53.40;;;;;;4215335;28;20048;-54
2021/08/13 04:22:31;;;;;;;11.85;4.70;;;26.50;53.50;;;;;;4215335;28;20108;-53
2021/08/13 04:24:34;;;;;;;8.90;4.10;;;26.60;53.70;;;;;;4215017;28;20112;-55
2021/08/13 04:26:36;;;;;;;13.35;4.95;;;26.50;53.50;;;;;;4215289;28;20104;-53
2021/08/13 04:28:38;;;;;;;7.00;4.07;;;26.50;53.50;;;;;;4215141;28;20083;-54
2021/08/13 04:30:40;;;;;;;11.30;4.28;;;26.50;53.60;;;;;;4211976;28;20041;-54
2021/08/13 04:32:42;;;;;;;6.32;3.72;;;26.50;53.60;;;;;;4213513;28;20056;-55
2021/08/13 04:34:44;;;;;;;10.10;4.45;;;26.50;53.40;;;;;;4215184;28;20048;-54
2021/08/13 04:36:46;;;;;;;8.30;4.20;;;26.50;53.20;;;;;;4215041;28;20553;-54
2021/08/13 04:38:48;;;;;;;8.02;4.43;;;26.50;53.30;;;;;;4213755;28;20055;-55
2021/08/13 04:40:50;;;;;;;8.40;4.72;;;26.50;53.50;;;;;;4215212;28;20054;-55
2021/08/13 04:42:52;;;;;;;7.32;3.95;;;26.50;53.10;;;;;;4215274;28;20049;-54
2021/08/13 04:44:55;;;;;;;8.05;4.47;;;26.50;53.30;;;;;;4215120;28;20041;-54
2021/08/13 04:47:10;;;;;;;6.70;4.30;;;26.50;53.20;;;;;;4207356;28;20041;-53
2021/08/13 04:49:15;;;;;;;17.15;6.80;;;26.50;53.20;;;;;;4201259;28;20051;-57
2021/08/13 04:51:17;;;;;;;;;;;26.50;52.70;;;;;;4213473;28;20083;-57
2021/08/13 04:53:18;;;;;;;17.58;8.73;;;26.20;52.90;;;;;;4215375;28;19921;-57
2021/08/13 04:55:25;;;;;;;14.50;7.00;;;26.20;52.70;;;;;;4222019;28;20051;-57
2021/08/13 04:57:27;;;;;;;19.05;7.00;;;26.10;53.20;;;;;;4217084;28;20045;-58
2021/08/13 04:59:29;;;;;;;19.13;7.68;;;26.10;52.90;;;;;;4206332;28;20127;-58
2021/08/13 05:01:31;;;;;;;16.13;7.65;;;25.90;52.90;;;;;;4210473;28;20053;-58
2021/08/13 05:03:34;;;;;;;14.10;6.88;;;25.80;52.50;;;;;;4215520;28;20055;-57
2021/08/13 05:05:35;;;;;;;10.90;6.75;;;25.90;52.80;;;;;;4217407;28;20053;-58
2021/08/13 05:07:41;;;;;;;14.32;6.55;;;25.90;52.80;;;;;;4216374;28;20071;-58
2021/08/13 05:09:43;;;;;;;11.05;6.13;;;25.80;52.50;;;;;;4213937;28;20413;-58
2021/08/13 05:11:45;;;;;;;20.40;6.95;;;25.90;52.50;;;;;;4216551;28;20041;-58
2021/08/13 05:13:47;;;;;;;15.27;6.63;;;25.90;52.70;;;;;;4199074;28;20045;-58
2021/08/13 05:15:49;;;;;;;10.43;6.50;;;25.90;52.10;;;;;;4207376;28;20436;-58
2021/08/13 05:17:51;;;;;;;8.23;5.85;;;25.90;52.40;;;;;;4206111;28;20048;-58
2021/08/13 05:19:54;;;;;;;10.63;5.47;;;25.90;52.60;;;;;;4217032;28;20049;-58
2021/08/13 05:21:56;;;;;;;14.27;6.10;;;26.00;52.40;;;;;;4215233;28;20051;-58
2021/08/13 05:23:58;;;;;;;10.23;6.30;;;26.00;52.20;;;;;;4215534;28;20052;-58
2021/08/13 05:26:00;;;;;;;9.82;5.65;;;26.00;51.90;;;;;;4216904;28;20040;-58
2021/08/13 05:28:02;;;;;;;9.25;5.82;;;26.00;52.00;;;;;;4217105;28;20056;-58
2021/08/13 05:30:05;;;;;;;8.25;6.05;;;25.90;51.70;;;;;;4215037;28;20057;-58
2021/08/13 05:32:07;;;;;;;7.97;5.30;;;26.00;51.40;;;;;;4213808;28;20045;-58
2021/08/13 05:34:09;;;;;;;11.80;5.85;;;25.90;51.70;;;;;;4216566;28;20040;-59
2021/08/13 05:36:15;;;;;;;6.22;4.95;;;25.90;51.90;;;;;;4216794;28;20049;-58
2021/08/13 05:38:17;;;;;;;11.77;5.30;;;25.90;52.00;;;;;;4209269;28;20049;-59
2021/08/13 05:40:19;;;;;;;17.73;6.03;;;26.00;51.90;;;;;;4201707;28;20067;-59
2021/08/13 05:42:21;;;;;;;15.27;5.22;;;26.00;51.90;;;;;;4200703;28;20057;-57
2021/08/13 05:44:23;;;;;;;1322.18;477.92;;;26.00;51.80;;;;;;4212366;28;20056;-59
2021/08/13 05:46:25;;;;;;;572.17;515.22;;;26.10;62.60;;;;;;4218032;28;20147;-58
2021/08/13 05:48:27;;;;;;;297.48;267.10;;;25.90;51.90;;;;;;4216520;28;20049;-59
2021/08/13 05:50:29;;;;;;;237.77;214.23;;;25.90;51.80;;;;;;4201070;28;20048;-58
2021/08/13 05:52:31;;;;;;;123.72;111.38;;;25.90;52.00;;;;;;4208216;28;20045;-59
2021/08/13 05:54:33;;;;;;;68.97;61.85;;;26.00;52.20;;;;;;4216954;28;20058;-60
2021/08/13 05:56:35;;;;;;;52.67;47.05;;;26.00;52.10;;;;;;4217053;28;20045;-59
2021/08/13 05:58:37;;;;;;;37.38;31.08;;;26.00;51.90;;;;;;4216410;28;20106;-60
2021/08/13 06:00:39;;;;;;;24.92;21.73;;;26.00;51.90;;;;;;4217595;28;20056;-60
2021/08/13 06:02:55;;;;;;;21.67;19.08;;;26.10;51.60;;;;;;4215255;28;20063;-60
2021/08/13 06:04:57;;;;;;;18.10;12.52;;;26.10;51.80;;;;;;4216903;28;20048;-60
2021/08/13 06:06:59;;;;;;;12.07;9.48;;;26.20;51.00;;;;;;4213526;28;20111;-60
2021/08/13 06:09:03;;;;;;;7.88;6.95;;;26.20;51.30;;;;;;4215169;28;20052;-60
2021/08/13 06:11:05;;;;;;;7.10;5.53;;;26.20;51.20;;;;;;4218929;28;20071;-60
2021/08/13 06:13:07;;;;;;;8.23;5.97;;;26.20;51.00;;;;;;4202768;28;20041;-61
2021/08/13 06:15:10;;;;;;;7.75;3.58;;;26.20;50.40;;;;;;4210568;28;20047;-57
2021/08/13 06:17:12;;;;;;;10.45;7.50;;;26.20;50.90;;;;;;4215483;28;20051;-57
2021/08/13 06:19:14;;;;;;;12.57;8.43;;;26.20;50.60;;;;;;4199773;28;20051;-59
2021/08/13 06:21:16;;;;;;;11.23;7.15;;;26.00;50.10;;;;;;4203772;28;20057;-58
2021/08/13 06:23:18;;;;;;;11.23;6.55;;;26.00;49.90;;;;;;4208197;28;20044;-58
2021/08/13 06:25:20;;;;;;;9.00;5.68;;;26.00;49.90;;;;;;4217011;28;20091;-58
2021/08/13 06:27:22;;;;;;;7.43;4.60;;;26.10;49.90;;;;;;4217019;28;20055;-61
2021/08/13 06:29:24;;;;;;;6.63;3.60;;;26.10;49.70;;;;;;4213944;28;20044;-61
2021/08/13 06:31:26;;;;;;;11.00;3.50;;;26.10;50.30;;;;;;4217062;28;20044;-58
2021/08/13 06:33:28;;;;;;;6.28;3.17;;;26.10;50.20;;;;;;4217287;28;20100;-58
2021/08/13 06:35:30;;;;;;;4.95;3.28;;;26.10;50.30;;;;;;4217181;28;20047;-59
2021/08/13 06:37:32;;;;;;;5.45;3.15;;;26.20;50.20;;;;;;4221323;28;20111;-59
2021/08/13 06:39:34;;;;;;;3.90;3.03;;;26.20;50.40;;;;;;4230025;28;20055;-58
2021/08/13 06:41:41;;;;;;;6.35;2.47;;;26.20;50.20;;;;;;4217213;28;20044;-57
2021/08/13 06:43:43;;;;;;;6.93;3.47;;;26.20;50.30;;;;;;4217158;28;20129;-57
2021/08/13 06:45:45;;;;;;;6.53;3.20;;;26.30;49.90;;;;;;4203700;28;20047;-58
2021/08/13 06:47:47;;;;;;;6.25;3.90;;;26.20;49.50;;;;;;4216793;28;20041;-57
2021/08/13 06:49:50;;;;;;;5.47;2.75;;;26.30;49.20;;;;;;4218483;28;20049;-59
2021/08/13 06:51:52;;;;;;;6.65;3.75;;;26.20;49.70;;;;;;4219928;28;20053;-57
2021/08/13 06:53:54;;;;;;;4.47;3.25;;;26.20;49.40;;;;;;4216934;28;20089;-57
2021/08/13 06:55:56;;;;;;;5.95;3.30;;;26.20;49.10;;;;;;4216947;28;20046;-58
2021/08/13 06:58:01;;;;;;;3.65;2.47;;;26.30;48.50;;;;;;4214419;28;20056;-57
2021/08/13 07:00:09;;;;;;;6.38;3.47;;;26.20;49.40;;;;;;4200195;28;20619;-61
2021/08/13 07:02:11;;;;;;;2.83;2.33;;;26.20;49.20;;;;;;4211439;28;20055;-61
2021/08/13 07:04:13;;;;;;;9.20;5.55;;;26.20;49.40;;;;;;4197889;28;20061;-61
2021/08/13 07:06:15;;;;;;;10.02;5.07;;;26.20;48.70;;;;;;4196697;28;20044;-60
2021/08/13 07:08:17;;;;;;;13.70;9.05;;;26.20;49.10;;;;;;4197172;28;20108;-62
2021/08/13 07:10:19;;;;;;;13.57;9.43;;;26.20;48.60;;;;;;4187835;28;20427;-62
2021/08/13 07:12:21;;;;;;;11.70;8.77;;;26.10;47.90;;;;;;4195927;28;20072;-64
2021/08/13 07:14:23;;;;;;;12.52;7.03;;;26.00;47.50;;;;;;4193652;28;20049;-63
2021/08/13 07:16:25;;;;;;;7.45;5.57;;;26.00;47.30;;;;;;4211157;28;20049;-64
2021/08/13 07:18:27;;;;;;;8.93;5.90;;;26.00;47.90;;;;;;4197886;28;20077;-62
2021/08/13 07:20:30;;;;;;;11.95;6.25;;;26.00;47.70;;;;;;4196800;28;20055;-60
2021/08/13 07:22:32;;;;;;;11.18;4.70;;;26.00;48.20;;;;;;4196833;28;20057;-63
2021/08/13 07:24:34;;;;;;;9.48;5.18;;;26.00;47.50;;;;;;4198644;28;20083;-63
2021/08/13 07:26:36;;;;;;;7.63;4.68;;;25.90;47.40;;;;;;4197199;28;20060;-62
2021/08/13 07:28:39;;;;;;;7.13;4.97;;;25.90;47.00;;;;;;4197628;28;20063;-62
2021/08/13 07:30:41;;;;;;;8.55;5.07;;;25.90;47.10;;;;;;4198189;28;20048;-58
2021/08/13 07:32:45;;;;;;;11.68;4.82;;;25.90;47.20;;;;;;4198294;28;20049;-60
2021/08/13 07:34:47;;;;;;;7.32;4.25;;;25.90;46.80;;;;;;4196717;28;20044;-63
2021/08/13 07:36:49;;;;;;;9.02;4.35;;;25.90;47.00;;;;;;4196776;28;20041;-63
2021/08/13 07:39:10;;;;;;;5.75;4.18;;;25.90;46.70;;;;;;4198264;28;20045;-60
2021/08/13 07:41:12;;;;;;;8.32;4.25;;;25.90;46.70;;;;;;4198224;28;20057;-62
2021/08/13 07:43:15;;;;;;;8.45;4.25;;;25.90;46.60;;;;;;4179259;28;20084;-62
2021/08/13 07:45:17;;;;;;;10.23;4.40;;;26.00;46.60;;;;;;4195328;28;20079;-60
2021/08/13 07:47:19;;;;;;;9.77;4.53;;;26.10;46.90;;;;;;4196704;28;20140;-59
2021/08/13 07:49:21;;;;;;;11.10;4.95;;;26.00;46.30;;;;;;4198313;28;20056;-58
2021/08/13 07:51:23;;;;;;;6.30;4.40;;;26.00;46.60;;;;;;4187122;28;20053;-59
2021/08/13 07:53:25;;;;;;;11.80;4.50;;;26.00;46.10;;;;;;4200888;28;20070;-59
2021/08/13 07:55:27;;;;;;;8.63;4.53;;;26.00;46.30;;;;;;4208369;28;20044;-59
2021/08/13 07:57:29;;;;;;;12.55;4.07;;;26.00;46.40;;;;;;4197938;28;20045;-58
2021/08/13 07:59:33;;;;;;;16.85;4.97;;;26.10;46.20;;;;;;4206326;28;20059;-57
2021/08/13 08:01:38;;;;;;;6.60;4.53;;;26.10;46.60;;;;;;4215427;28;20063;-57
2021/08/13 08:03:40;;;;;;;11.35;4.97;;;26.00;45.70;;;;;;4214081;28;20083;-57
2021/08/13 08:05:42;;;;;;;11.45;5.13;;;26.00;45.90;;;;;;4212792;28;20052;-59
2021/08/13 08:07:44;;;;;;;6.88;4.97;;;26.00;46.70;;;;;;4211578;28;20072;-60
2021/08/13 08:09:46;;;;;;;8.95;4.95;;;26.00;46.20;;;;;;4198244;28;20576;-62
2021/08/13 08:11:48;;;;;;;12.48;5.22;;;26.00;44.90;;;;;;4210643;28;20041;-61
2021/08/13 08:13:50;;;;;;;13.23;5.45;;;26.00;45.60;;;;;;4206402;28;20100;-60
2021/08/13 08:15:52;;;;;;;12.82;4.85;;;26.00;45.90;;;;;;4200091;28;20040;-59
2021/08/13 08:17:54;;;;;;;15.55;5.38;;;26.10;44.90;;;;;;4210396;28;20109;-59
2021/08/13 08:19:56;;;;;;;11.45;4.65;;;26.10;44.80;;;;;;4206983;28;20045;-64
2021/08/13 08:21:59;;;;;;;11.45;5.10;;;26.00;44.10;;;;;;4201137;28;20047;-64
2021/08/13 08:24:01;;;;;;;12.02;4.95;;;26.00;44.30;;;;;;4198185;28;20051;-65
2021/08/13 08:26:04;;;;;;;8.25;4.68;;;26.10;44.60;;;;;;4216103;28;20044;-64
2021/08/13 08:28:06;;;;;;;11.93;4.78;;;26.10;45.00;;;;;;4215702;28;20055;-62
2021/08/13 08:30:08;;;;;;;15.57;5.90;;;26.00;44.10;;;;;;4216305;28;20064;-62
2021/08/13 08:32:10;;;;;;;13.85;6.00;;;26.00;44.40;;;;;;4216939;28;20059;-62
2021/08/13 08:34:12;;;;;;;11.50;5.28;;;26.00;44.40;;;;;;4206868;28;20056;-62
2021/08/13 08:36:14;;;;;;;10.88;6.50;;;26.00;44.20;;;;;;4204396;28;20045;-60
2021/08/13 08:38:16;;;;;;;21.75;9.95;;;26.00;44.30;;;;;;4202248;28;20076;-60
2021/08/13 08:40:26;;;;;;;17.00;10.10;;;26.00;44.40;;;;;;4203281;28;20057;-61
2021/08/13 08:42:28;;;;;;;13.65;7.13;;;26.00;45.70;;;;;;4206084;28;20059;-61
2021/08/13 08:44:31;;;;;;;18.35;8.52;;;26.10;45.00;;;;;;4221696;28;20049;-62
2021/08/13 08:46:33;;;;;;;12.15;6.78;;;26.10;44.50;;;;;;4201268;28;20076;-62
2021/08/13 08:48:38;;;;;;;10.68;6.85;;;26.00;44.70;;;;;;4204382;28;20049;-61
2021/08/13 08:50:42;;;;;;;11.73;6.18;;;26.10;45.10;;;;;;4200276;28;20047;-60
2021/08/13 08:52:44;;;;;;;10.55;6.05;;;26.10;45.30;;;;;;4216819;28;20052;-57
2021/08/13 08:54:47;;;;;;;9.98;4.90;;;26.10;44.20;;;;;;4205986;28;20045;-58
2021/08/13 08:56:49;;;;;;;11.02;4.68;;;26.10;44.00;;;;;;4214604;28;20044;-58
2021/08/13 08:59:11;;;;;;;7.78;4.32;;;26.10;44.50;;;;;;4212571;28;20040;-57
2021/08/13 09:01:17;;;;;;;7.85;4.82;;;26.10;44.70;;;;;;4214320;28;20045;-57
2021/08/13 09:03:20;;;;;;;13.02;5.78;;;26.20;44.60;;;;;;4202137;28;20096;-56
2021/08/13 09:05:22;;;;;;;12.15;7.88;;;26.10;44.80;;;;;;4202071;28;20069;-57
2021/08/13 09:07:24;;;;;;;16.08;8.02;;;26.20;45.10;;;;;;4208110;28;20056;-58
2021/08/13 09:09:26;;;;;;;11.35;7.65;;;26.20;44.70;;;;;;4218685;28;20054;-58
2021/08/13 09:11:28;;;;;;;9.20;5.72;;;26.20;44.10;;;;;;4218407;28;20052;-58
2021/08/13 09:13:33;;;;;;;11.73;5.95;;;26.20;44.00;;;;;;4218562;28;20100;-57
2021/08/13 09:15:40;;;;;;;10.23;5.30;;;26.20;45.10;;;;;;4215090;28;20049;-61
2021/08/13 09:17:42;;;;;;;10.90;5.32;;;26.20;44.00;;;;;;4206588;28;20048;-60
2021/08/13 09:19:46;;;;;;;9.57;4.45;;;26.20;43.80;;;;;;4213506;28;20115;-60
2021/08/13 09:22:10;;;;;;;8.68;5.32;;;26.20;43.50;;;;;;4211675;28;20071;-60
2021/08/13 09:24:13;;;;;;;7.20;4.50;;;26.20;43.20;;;;;;4203791;28;20045;-60
2021/08/13 09:26:21;;;;;;;10.48;4.65;;;26.20;43.60;;;;;;4201259;28;20113;-57
2021/08/13 09:28:47;;;;;;;10.02;4.78;;;26.20;43.00;;;;;;4203490;28;20076;-59
2021/08/13 09:30:49;;;;;;;16.65;5.22;;;26.20;42.80;;;;;;4214473;28;20049;-62
2021/08/13 09:32:59;;;;;;;22.30;12.32;;;26.20;43.80;;;;;;4218054;28;20043;-57
2021/08/13 09:35:03;;;;;;;27.92;14.45;;;26.30;44.50;;;;;;4200732;28;20148;-57
2021/08/13 09:37:15;;;;;;;22.02;10.68;;;26.30;43.90;;;;;;4216922;28;20120;-58
2021/08/13 09:39:23;;;;;;;20.38;10.13;;;26.30;43.00;;;;;;4217765;28;20047;-57
2021/08/13 09:41:26;;;;;;;19.35;9.00;;;26.30;42.30;;;;;;4217788;28;20059;-57
2021/08/13 09:43:27;;;;;;;13.90;6.95;;;26.30;42.20;;;;;;4217927;28;20051;-57
2021/08/13 09:45:30;;;;;;;14.02;6.45;;;26.20;42.30;;;;;;4217806;28;20044;-57
2021/08/13 09:47:46;;;;;;;12.35;6.32;;;26.20;42.40;;;;;;4219347;28;20059;-57
2021/08/13 09:49:57;;;;;;;10.93;5.45;;;26.20;42.80;;;;;;4213277;28;20044;-58
2021/08/13 09:52:15;;;;;;;13.45;7.00;;;26.20;42.90;;;;;;4195885;28;20053;-58
2021/08/13 09:54:18;;;;;;;13.45;4.60;;;26.30;42.80;;;;;;4215070;28;20040;-58
2021/08/13 09:56:28;;;;;;;8.98;5.90;;;26.20;42.20;;;;;;4207977;28;20069;-57
2021/08/13 09:58:30;;;;;;;10.52;4.88;;;26.20;42.70;;;;;;4205645;28;20395;-55
2021/08/13 10:00:45;;;;;;;12.30;4.85;;;26.20;43.30;;;;;;4200866;28;20050;-56
2021/08/13 10:02:48;;;;;;;13.70;4.75;;;26.30;43.60;;;;;;4201014;28;20041;-56
2021/08/13 10:04:50;;;;;;;9.23;4.53;;;26.30;43.20;;;;;;4205175;28;20047;-56
2021/08/13 10:06:55;;;;;;;11.82;4.53;;;26.30;43.00;;;;;;4211342;28;20037;-56
2021/08/13 10:08:57;;;;;;;10.48;4.55;;;26.30;42.40;;;;;;4201052;28;20489;-55
2021/08/13 10:11:10;;;;;;;8.15;4.15;;;26.30;43.10;;;;;;4200837;28;20049;-55
2021/08/13 10:13:13;;;;;;;7.88;4.13;;;26.30;42.50;;;;;;4192438;28;20073;-57
2021/08/13 10:15:32;;;;;;;7.82;3.45;;;26.30;42.30;;;;;;4187717;28;20104;-57
2021/08/13 10:17:35;;;;;;;5.95;3.90;;;26.30;41.80;;;;;;4199200;28;20052;-57
2021/08/13 10:19:55;;;;;;;10.68;4.85;;;26.30;42.60;;;;;;4201884;28;20048;-57
2021/08/13 10:21:58;;;;;;;7.43;4.40;;;26.30;42.30;;;;;;4197699;28;20055;-56
2021/08/13 10:24:00;;;;;;;10.80;3.75;;;26.40;42.60;;;;;;4199072;28;20486;-58
2021/08/13 10:26:02;;;;;;;18.67;4.63;;;26.30;42.70;;;;;;4199388;28;20049;-58
2021/08/13 10:28:05;;;;;;;12.07;7.53;;;26.40;43.80;;;;;;4198070;28;20059;-57
2021/08/13 10:30:07;;;;;;;11.70;9.25;;;26.40;43.80;;;;;;4196948;28;20072;-57
2021/08/13 10:32:09;;;;;;;10.30;8.30;;;26.40;44.30;;;;;;4199030;28;20059;-56
2021/08/13 10:34:11;;;;;;;16.00;7.60;;;26.40;42.70;;;;;;4200705;28;20049;-57
2021/08/13 10:36:18;;;;;;;10.38;6.32;;;26.40;43.30;;;;;;4200575;28;20055;-57
2021/08/13 10:38:21;;;;;;;11.13;5.63;;;26.40;43.50;;;;;;4200262;28;20041;-57
2021/08/13 10:40:25;;;;;;;6.75;5.07;;;26.40;42.40;;;;;;4206993;28;20056;-57
2021/08/13 10:42:27;;;;;;;10.43;5.30;;;26.40;42.50;;;;;;4199324;28;20136;-57